Terminal Aerodrome Forecast
Issued by NWS Charleston, WV

Home | Current Version | Previous Version | Text Only | Print | Product List | Glossary On
Versions: 1 2 3 4 5 6 7 8 9 10 11 12 13 14 15 16 17 18 19 20 21 22 23
916
FTUS41 KRLX 171740
TAFCRW
TAF
KCRW 171740Z 1718/1818 22012G22KT P6SM BKN025 OVC050
     FM172100 22010G20KT 5SM -SHRA OVC025
     FM180200 25008G17KT P6SM BKN012 OVC020
     FM181300 27011KT P6SM OVC025=

USA.gov is the U.S. government's official web portal to all federal, state and local government web resources and services.